sensor_id;sensor_type;location;lat;lon;timestamp;P1;durP1;ratioP1;P2;durP2;ratioP2
5801;SDS011;2927;49.366;8.530;2023-02-26T00:01:19;6.33;;;3.47;;
5801;SDS011;2927;49.366;8.530;2023-02-26T00:03:53;6.60;;;4.03;;
5801;SDS011;2927;49.366;8.530;2023-02-26T00:06:20;9.23;;;3.80;;
5801;SDS011;2927;49.366;8.530;2023-02-26T00:08:47;23.17;;;4.93;;
5801;SDS011;2927;49.366;8.530;2023-02-26T00:11:13;13.50;;;4.27;;
5801;SDS011;2927;49.366;8.530;2023-02-26T00:13:39;5.97;;;3.60;;
5801;SDS011;2927;49.366;8.530;2023-02-26T00:16:29;4.50;;;2.50;;
5801;SDS011;2927;49.366;8.530;2023-02-26T00:18:58;4.90;;;2.90;;
5801;SDS011;2927;49.366;8.530;2023-02-26T00:21:26;6.00;;;2.97;;
5801;SDS011;2927;49.366;8.530;2023-02-26T00:23:53;4.53;;;2.37;;
5801;SDS011;2927;49.366;8.530;2023-02-26T00:26:19;7.30;;;3.03;;
5801;SDS011;2927;49.366;8.530;2023-02-26T00:28:47;2.47;;;1.63;;
5801;SDS011;2927;49.366;8.530;2023-02-26T00:31:14;3.17;;;1.57;;
5801;SDS011;2927;49.366;8.530;2023-02-26T00:33:42;1.83;;;1.57;;
5801;SDS011;2927;49.366;8.530;2023-02-26T00:38:49;2.67;;;1.30;;
5801;SDS011;2927;49.366;8.530;2023-02-26T00:41:36;2.00;;;1.50;;
5801;SDS011;2927;49.366;8.530;2023-02-26T00:44:02;9.40;;;1.73;;
5801;SDS011;2927;49.366;8.530;2023-02-26T00:49:08;2.30;;;1.00;;
5801;SDS011;2927;49.366;8.530;2023-02-26T00:51:51;2.20;;;1.30;;
5801;SDS011;2927;49.366;8.530;2023-02-26T00:54:27;1.80;;;1.57;;
5801;SDS011;2927;49.366;8.530;2023-02-26T00:56:54;3.27;;;1.40;;
5801;SDS011;2927;49.366;8.530;2023-02-26T00:59:21;1.67;;;0.90;;
5801;SDS011;2927;49.366;8.530;2023-02-26T01:01:47;1.80;;;0.87;;
5801;SDS011;2927;49.366;8.530;2023-02-26T01:04:14;3.23;;;1.30;;
5801;SDS011;2927;49.366;8.530;2023-02-26T01:06:43;2.60;;;1.10;;
5801;SDS011;2927;49.366;8.530;2023-02-26T01:11:49;3.33;;;0.93;;
5801;SDS011;2927;49.366;8.530;2023-02-26T01:14:16;7.20;;;1.10;;
5801;SDS011;2927;49.366;8.530;2023-02-26T01:16:53;2.00;;;1.10;;
5801;SDS011;2927;49.366;8.530;2023-02-26T01:24:58;2.57;;;1.60;;
5801;SDS011;2927;49.366;8.530;2023-02-26T01:27:31;3.70;;;1.63;;
5801;SDS011;2927;49.366;8.530;2023-02-26T01:29:57;1.90;;;1.20;;
5801;SDS011;2927;49.366;8.530;2023-02-26T01:35:36;1.60;;;1.10;;
5801;SDS011;2927;49.366;8.530;2023-02-26T01:49:12;2.23;;;1.13;;
5801;SDS011;2927;49.366;8.530;2023-02-26T01:54:15;3.20;;;2.37;;
5801;SDS011;2927;49.366;8.530;2023-02-26T01:56:42;2.47;;;1.73;;
5801;SDS011;2927;49.366;8.530;2023-02-26T01:59:12;2.30;;;1.03;;
5801;SDS011;2927;49.366;8.530;2023-02-26T02:01:40;1.10;;;1.00;;
5801;SDS011;2927;49.366;8.530;2023-02-26T02:04:08;5.50;;;1.63;;
5801;SDS011;2927;49.366;8.530;2023-02-26T02:06:36;3.80;;;1.47;;
5801;SDS011;2927;49.366;8.530;2023-02-26T02:09:03;3.10;;;2.30;;
5801;SDS011;2927;49.366;8.530;2023-02-26T02:11:30;2.00;;;1.50;;
5801;SDS011;2927;49.366;8.530;2023-02-26T02:14:02;6.33;;;1.70;;
5801;SDS011;2927;49.366;8.530;2023-02-26T02:17:00;2.50;;;2.03;;
5801;SDS011;2927;49.366;8.530;2023-02-26T02:22:45;11.50;;;2.30;;
5801;SDS011;2927;49.366;8.530;2023-02-26T02:34:34;2.33;;;1.60;;
5801;SDS011;2927;49.366;8.530;2023-02-26T02:37:06;4.70;;;1.90;;
5801;SDS011;2927;49.366;8.530;2023-02-26T02:39:42;2.73;;;1.27;;
5801;SDS011;2927;49.366;8.530;2023-02-26T02:44:39;4.63;;;1.53;;
5801;SDS011;2927;49.366;8.530;2023-02-26T02:47:11;3.33;;;1.03;;
5801;SDS011;2927;49.366;8.530;2023-02-26T02:49:54;1.13;;;1.03;;
5801;SDS011;2927;49.366;8.530;2023-02-26T02:52:30;1.73;;;1.20;;
5801;SDS011;2927;49.366;8.530;2023-02-26T02:55:08;2.73;;;1.10;;
5801;SDS011;2927;49.366;8.530;2023-02-26T02:57:42;3.80;;;1.20;;
5801;SDS011;2927;49.366;8.530;2023-02-26T03:00:24;1.17;;;1.00;;
5801;SDS011;2927;49.366;8.530;2023-02-26T03:05:40;8.10;;;1.13;;
5801;SDS011;2927;49.366;8.530;2023-02-26T03:08:11;1.73;;;0.90;;
5801;SDS011;2927;49.366;8.530;2023-02-26T03:10:39;2.00;;;1.03;;
5801;SDS011;2927;49.366;8.530;2023-02-26T03:13:10;7.93;;;1.23;;
5801;SDS011;2927;49.366;8.530;2023-02-26T03:18:23;0.93;;;0.93;;
5801;SDS011;2927;49.366;8.530;2023-02-26T03:21:11;1.60;;;1.50;;
5801;SDS011;2927;49.366;8.530;2023-02-26T03:23:57;7.40;;;1.20;;
5801;SDS011;2927;49.366;8.530;2023-02-26T03:26:34;2.13;;;2.03;;
5801;SDS011;2927;49.366;8.530;2023-02-26T03:29:20;2.80;;;1.90;;
5801;SDS011;2927;49.366;8.530;2023-02-26T03:32:10;3.47;;;1.87;;
5801;SDS011;2927;49.366;8.530;2023-02-26T03:35:19;3.50;;;1.80;;
5801;SDS011;2927;49.366;8.530;2023-02-26T03:37:40;3.17;;;1.37;;
5801;SDS011;2927;49.366;8.530;2023-02-26T03:40:09;2.43;;;1.07;;
5801;SDS011;2927;49.366;8.530;2023-02-26T03:42:45;3.33;;;1.17;;
5801;SDS011;2927;49.366;8.530;2023-02-26T03:45:38;5.03;;;2.00;;
5801;SDS011;2927;49.366;8.530;2023-02-26T03:48:06;4.23;;;1.60;;
5801;SDS011;2927;49.366;8.530;2023-02-26T03:50:39;5.90;;;1.77;;
5801;SDS011;2927;49.366;8.530;2023-02-26T03:53:32;1.60;;;1.50;;
5801;SDS011;2927;49.366;8.530;2023-02-26T03:58:37;2.93;;;1.83;;
5801;SDS011;2927;49.366;8.530;2023-02-26T04:01:04;4.43;;;1.30;;
5801;SDS011;2927;49.366;8.530;2023-02-26T04:03:43;3.47;;;1.43;;
5801;SDS011;2927;49.366;8.530;2023-02-26T04:06:13;2.30;;;1.53;;
5801;SDS011;2927;49.366;8.530;2023-02-26T04:08:39;4.00;;;1.93;;
5801;SDS011;2927;49.366;8.530;2023-02-26T04:11:07;4.23;;;2.57;;
5801;SDS011;2927;49.366;8.530;2023-02-26T04:13:35;7.77;;;2.37;;
5801;SDS011;2927;49.366;8.530;2023-02-26T04:16:02;6.03;;;2.33;;
5801;SDS011;2927;49.366;8.530;2023-02-26T04:18:27;3.23;;;1.77;;
5801;SDS011;2927;49.366;8.530;2023-02-26T04:20:53;8.63;;;1.57;;
5801;SDS011;2927;49.366;8.530;2023-02-26T04:23:19;1.80;;;1.70;;
5801;SDS011;2927;49.366;8.530;2023-02-26T04:25:44;4.87;;;1.90;;
5801;SDS011;2927;49.366;8.530;2023-02-26T04:28:11;3.50;;;2.23;;
5801;SDS011;2927;49.366;8.530;2023-02-26T04:30:36;8.23;;;2.20;;
5801;SDS011;2927;49.366;8.530;2023-02-26T04:33:03;1.70;;;1.23;;
5801;SDS011;2927;49.366;8.530;2023-02-26T04:35:28;8.13;;;2.80;;
5801;SDS011;2927;49.366;8.530;2023-02-26T04:37:54;4.67;;;2.10;;
5801;SDS011;2927;49.366;8.530;2023-02-26T04:40:19;6.50;;;1.57;;
5801;SDS011;2927;49.366;8.530;2023-02-26T04:42:47;1.87;;;1.50;;
5801;SDS011;2927;49.366;8.530;2023-02-26T04:45:13;5.63;;;1.50;;
5801;SDS011;2927;49.366;8.530;2023-02-26T04:47:39;9.77;;;1.70;;
5801;SDS011;2927;49.366;8.530;2023-02-26T04:50:05;7.30;;;1.87;;
5801;SDS011;2927;49.366;8.530;2023-02-26T04:52:31;5.13;;;1.93;;
5801;SDS011;2927;49.366;8.530;2023-02-26T04:54:57;3.07;;;1.63;;
5801;SDS011;2927;49.366;8.530;2023-02-26T04:57:22;3.90;;;1.77;;
5801;SDS011;2927;49.366;8.530;2023-02-26T04:59:48;2.37;;;1.73;;
5801;SDS011;2927;49.366;8.530;2023-02-26T05:02:14;3.00;;;2.10;;
5801;SDS011;2927;49.366;8.530;2023-02-26T05:04:39;13.30;;;2.60;;
5801;SDS011;2927;49.366;8.530;2023-02-26T05:07:05;1.90;;;1.57;;
5801;SDS011;2927;49.366;8.530;2023-02-26T05:09:31;2.93;;;1.87;;
5801;SDS011;2927;49.366;8.530;2023-02-26T05:11:56;5.40;;;2.00;;
5801;SDS011;2927;49.366;8.530;2023-02-26T05:14:22;1.63;;;1.50;;
5801;SDS011;2927;49.366;8.530;2023-02-26T05:16:47;4.07;;;1.57;;
5801;SDS011;2927;49.366;8.530;2023-02-26T05:19:13;7.93;;;1.80;;
5801;SDS011;2927;49.366;8.530;2023-02-26T05:21:39;5.27;;;1.50;;
5801;SDS011;2927;49.366;8.530;2023-02-26T05:24:05;6.30;;;1.73;;
5801;SDS011;2927;49.366;8.530;2023-02-26T05:26:32;7.60;;;1.87;;
5801;SDS011;2927;49.366;8.530;2023-02-26T05:28:57;8.33;;;2.20;;
5801;SDS011;2927;49.366;8.530;2023-02-26T05:31:23;6.80;;;2.50;;
5801;SDS011;2927;49.366;8.530;2023-02-26T05:33:50;2.13;;;1.60;;
5801;SDS011;2927;49.366;8.530;2023-02-26T05:36:16;5.87;;;3.00;;
5801;SDS011;2927;49.366;8.530;2023-02-26T05:38:42;4.30;;;2.20;;
5801;SDS011;2927;49.366;8.530;2023-02-26T05:41:07;8.37;;;2.33;;
5801;SDS011;2927;49.366;8.530;2023-02-26T05:43:33;2.70;;;1.93;;
5801;SDS011;2927;49.366;8.530;2023-02-26T05:45:59;4.70;;;1.80;;
5801;SDS011;2927;49.366;8.530;2023-02-26T05:48:24;3.10;;;1.83;;
5801;SDS011;2927;49.366;8.530;2023-02-26T05:50:50;3.47;;;1.73;;
5801;SDS011;2927;49.366;8.530;2023-02-26T05:53:16;4.00;;;2.77;;
5801;SDS011;2927;49.366;8.530;2023-02-26T05:55:42;7.13;;;2.70;;
5801;SDS011;2927;49.366;8.530;2023-02-26T05:58:08;13.13;;;2.50;;
5801;SDS011;2927;49.366;8.530;2023-02-26T06:00:34;3.87;;;1.97;;
5801;SDS011;2927;49.366;8.530;2023-02-26T06:02:59;6.43;;;2.57;;
5801;SDS011;2927;49.366;8.530;2023-02-26T06:05:25;4.57;;;2.73;;
5801;SDS011;2927;49.366;8.530;2023-02-26T06:07:51;5.23;;;2.33;;
5801;SDS011;2927;49.366;8.530;2023-02-26T06:10:16;9.30;;;2.43;;
5801;SDS011;2927;49.366;8.530;2023-02-26T06:12:42;3.03;;;2.80;;
5801;SDS011;2927;49.366;8.530;2023-02-26T06:15:08;7.37;;;2.30;;
5801;SDS011;2927;49.366;8.530;2023-02-26T06:17:35;7.60;;;2.10;;
5801;SDS011;2927;49.366;8.530;2023-02-26T06:20:01;6.00;;;2.10;;
5801;SDS011;2927;49.366;8.530;2023-02-26T06:22:27;4.90;;;2.77;;
5801;SDS011;2927;49.366;8.530;2023-02-26T06:24:53;5.73;;;3.27;;
5801;SDS011;2927;49.366;8.530;2023-02-26T06:27:19;10.77;;;2.03;;
5801;SDS011;2927;49.366;8.530;2023-02-26T06:29:46;3.93;;;2.60;;
5801;SDS011;2927;49.366;8.530;2023-02-26T06:34:37;5.43;;;3.13;;
5801;SDS011;2927;49.366;8.530;2023-02-26T06:37:02;5.50;;;2.80;;
5801;SDS011;2927;49.366;8.530;2023-02-26T06:39:28;3.27;;;2.20;;
5801;SDS011;2927;49.366;8.530;2023-02-26T06:41:53;7.70;;;3.27;;
5801;SDS011;2927;49.366;8.530;2023-02-26T06:44:19;2.87;;;2.53;;
5801;SDS011;2927;49.366;8.530;2023-02-26T06:46:44;5.00;;;3.67;;
5801;SDS011;2927;49.366;8.530;2023-02-26T06:49:10;5.67;;;3.07;;
5801;SDS011;2927;49.366;8.530;2023-02-26T06:51:36;5.80;;;2.80;;
5801;SDS011;2927;49.366;8.530;2023-02-26T06:54:01;6.50;;;3.60;;
5801;SDS011;2927;49.366;8.530;2023-02-26T06:56:27;5.60;;;2.47;;
5801;SDS011;2927;49.366;8.530;2023-02-26T06:58:52;2.67;;;2.47;;
5801;SDS011;2927;49.366;8.530;2023-02-26T07:01:18;3.80;;;2.50;;
5801;SDS011;2927;49.366;8.530;2023-02-26T07:03:43;4.23;;;2.07;;
5801;SDS011;2927;49.366;8.530;2023-02-26T07:06:09;6.47;;;2.40;;
5801;SDS011;2927;49.366;8.530;2023-02-26T07:08:36;2.97;;;1.53;;
5801;SDS011;2927;49.366;8.530;2023-02-26T07:11:02;4.60;;;2.40;;
5801;SDS011;2927;49.366;8.530;2023-02-26T07:13:28;6.53;;;2.30;;
5801;SDS011;2927;49.366;8.530;2023-02-26T07:15:54;7.50;;;2.50;;
5801;SDS011;2927;49.366;8.530;2023-02-26T07:18:19;9.20;;;2.80;;
5801;SDS011;2927;49.366;8.530;2023-02-26T07:20:47;3.17;;;1.30;;
5801;SDS011;2927;49.366;8.530;2023-02-26T07:23:13;8.70;;;1.77;;
5801;SDS011;2927;49.366;8.530;2023-02-26T07:25:39;4.07;;;2.00;;
5801;SDS011;2927;49.366;8.530;2023-02-26T07:28:04;6.87;;;1.60;;
5801;SDS011;2927;49.366;8.530;2023-02-26T07:30:30;6.33;;;2.67;;
5801;SDS011;2927;49.366;8.530;2023-02-26T07:32:56;4.10;;;1.80;;
5801;SDS011;2927;49.366;8.530;2023-02-26T07:35:22;2.23;;;1.60;;
5801;SDS011;2927;49.366;8.530;2023-02-26T07:37:47;3.23;;;2.17;;
5801;SDS011;2927;49.366;8.530;2023-02-26T07:40:13;8.20;;;3.00;;
5801;SDS011;2927;49.366;8.530;2023-02-26T07:42:39;6.83;;;3.40;;
5801;SDS011;2927;49.366;8.530;2023-02-26T07:45:05;5.13;;;2.80;;
5801;SDS011;2927;49.366;8.530;2023-02-26T07:47:32;10.13;;;2.63;;
5801;SDS011;2927;49.366;8.530;2023-02-26T07:49:58;5.53;;;3.30;;
5801;SDS011;2927;49.366;8.530;2023-02-26T07:52:23;10.20;;;3.70;;
5801;SDS011;2927;49.366;8.530;2023-02-26T07:54:49;6.83;;;2.83;;
5801;SDS011;2927;49.366;8.530;2023-02-26T07:57:15;5.77;;;2.60;;
5801;SDS011;2927;49.366;8.530;2023-02-26T07:59:40;4.20;;;2.47;;
5801;SDS011;2927;49.366;8.530;2023-02-26T08:02:06;4.97;;;2.73;;
5801;SDS011;2927;49.366;8.530;2023-02-26T08:04:31;10.80;;;4.13;;
5801;SDS011;2927;49.366;8.530;2023-02-26T08:06:58;7.43;;;2.57;;
5801;SDS011;2927;49.366;8.530;2023-02-26T08:09:25;9.33;;;2.80;;
5801;SDS011;2927;49.366;8.530;2023-02-26T08:11:50;7.10;;;2.67;;
5801;SDS011;2927;49.366;8.530;2023-02-26T08:14:16;6.07;;;2.73;;
5801;SDS011;2927;49.366;8.530;2023-02-26T08:16:41;11.37;;;4.00;;
5801;SDS011;2927;49.366;8.530;2023-02-26T08:19:07;6.40;;;3.57;;
5801;SDS011;2927;49.366;8.530;2023-02-26T08:21:33;10.73;;;3.50;;
5801;SDS011;2927;49.366;8.530;2023-02-26T08:23:58;8.10;;;3.17;;
5801;SDS011;2927;49.366;8.530;2023-02-26T08:26:24;13.43;;;3.20;;
5801;SDS011;2927;49.366;8.530;2023-02-26T08:28:50;4.43;;;2.80;;
5801;SDS011;2927;49.366;8.530;2023-02-26T08:31:15;4.57;;;2.10;;
5801;SDS011;2927;49.366;8.530;2023-02-26T08:33:41;7.90;;;2.50;;
5801;SDS011;2927;49.366;8.530;2023-02-26T08:36:08;3.23;;;1.97;;
5801;SDS011;2927;49.366;8.530;2023-02-26T08:38:34;1.70;;;1.60;;
5801;SDS011;2927;49.366;8.530;2023-02-26T08:41:00;5.03;;;2.63;;
5801;SDS011;2927;49.366;8.530;2023-02-26T08:43:25;7.03;;;1.87;;
5801;SDS011;2927;49.366;8.530;2023-02-26T08:45:52;1.70;;;1.47;;
5801;SDS011;2927;49.366;8.530;2023-02-26T08:48:18;6.40;;;1.30;;
5801;SDS011;2927;49.366;8.530;2023-02-26T08:50:44;2.60;;;1.33;;
5801;SDS011;2927;49.366;8.530;2023-02-26T08:53:09;3.70;;;1.40;;
5801;SDS011;2927;49.366;8.530;2023-02-26T08:55:35;6.13;;;1.10;;
5801;SDS011;2927;49.366;8.530;2023-02-26T08:58:00;3.67;;;0.90;;
5801;SDS011;2927;49.366;8.530;2023-02-26T09:00:26;2.50;;;1.57;;
5801;SDS011;2927;49.366;8.530;2023-02-26T09:02:52;4.60;;;1.23;;
5801;SDS011;2927;49.366;8.530;2023-02-26T09:05:17;5.00;;;0.87;;
5801;SDS011;2927;49.366;8.530;2023-02-26T09:07:43;1.13;;;1.07;;
5801;SDS011;2927;49.366;8.530;2023-02-26T09:10:09;3.60;;;1.03;;
5801;SDS011;2927;49.366;8.530;2023-02-26T09:12:36;1.40;;;0.80;;
5801;SDS011;2927;49.366;8.530;2023-02-26T09:15:02;1.50;;;0.70;;
5801;SDS011;2927;49.366;8.530;2023-02-26T09:17:29;2.53;;;0.90;;
5801;SDS011;2927;49.366;8.530;2023-02-26T09:19:54;2.83;;;1.40;;
5801;SDS011;2927;49.366;8.530;2023-02-26T09:22:20;1.40;;;0.83;;
5801;SDS011;2927;49.366;8.530;2023-02-26T09:24:46;1.63;;;1.00;;
5801;SDS011;2927;49.366;8.530;2023-02-26T09:27:11;2.00;;;1.13;;
5801;SDS011;2927;49.366;8.530;2023-02-26T09:29:37;3.73;;;1.30;;
5801;SDS011;2927;49.366;8.530;2023-02-26T09:32:02;5.30;;;1.20;;
5801;SDS011;2927;49.366;8.530;2023-02-26T09:34:32;4.10;;;1.10;;
5801;SDS011;2927;49.366;8.530;2023-02-26T09:37:04;1.53;;;1.30;;
5801;SDS011;2927;49.366;8.530;2023-02-26T09:39:31;9.50;;;0.73;;
5801;SDS011;2927;49.366;8.530;2023-02-26T09:41:59;3.50;;;0.97;;
5801;SDS011;2927;49.366;8.530;2023-02-26T09:44:46;2.00;;;1.07;;
5801;SDS011;2927;49.366;8.530;2023-02-26T09:47:23;1.93;;;1.00;;
5801;SDS011;2927;49.366;8.530;2023-02-26T09:50:00;3.10;;;1.13;;
5801;SDS011;2927;49.366;8.530;2023-02-26T09:52:33;1.40;;;0.80;;
5801;SDS011;2927;49.366;8.530;2023-02-26T09:55:02;0.80;;;0.70;;
5801;SDS011;2927;49.366;8.530;2023-02-26T09:57:34;1.67;;;0.80;;
5801;SDS011;2927;49.366;8.530;2023-02-26T10:08:35;0.70;;;0.70;;
5801;SDS011;2927;49.366;8.530;2023-02-26T10:13:45;1.60;;;1.50;;
5801;SDS011;2927;49.366;8.530;2023-02-26T10:16:22;1.73;;;0.83;;
5801;SDS011;2927;49.366;8.530;2023-02-26T10:18:54;3.73;;;1.60;;
5801;SDS011;2927;49.366;8.530;2023-02-26T10:21:34;7.70;;;1.40;;
5801;SDS011;2927;49.366;8.530;2023-02-26T10:24:18;1.23;;;1.13;;
5801;SDS011;2927;49.366;8.530;2023-02-26T10:27:03;0.87;;;0.87;;
5801;SDS011;2927;49.366;8.530;2023-02-26T10:34:59;3.90;;;1.40;;
5801;SDS011;2927;49.366;8.530;2023-02-26T10:37:48;2.20;;;0.70;;
5801;SDS011;2927;49.366;8.530;2023-02-26T10:51:01;2.93;;;1.00;;
5801;SDS011;2927;49.366;8.530;2023-02-26T10:53:38;0.50;;;0.50;;
5801;SDS011;2927;49.366;8.530;2023-02-26T10:56:09;0.50;;;0.50;;
5801;SDS011;2927;49.366;8.530;2023-02-26T10:58:39;1.57;;;0.43;;
5801;SDS011;2927;49.366;8.530;2023-02-26T11:01:06;1.23;;;0.50;;
5801;SDS011;2927;49.366;8.530;2023-02-26T11:03:41;0.80;;;0.50;;
5801;SDS011;2927;49.366;8.530;2023-02-26T11:06:09;1.63;;;0.50;;
5801;SDS011;2927;49.366;8.530;2023-02-26T11:08:42;4.53;;;0.40;;
5801;SDS011;2927;49.366;8.530;2023-02-26T11:11:09;2.23;;;0.67;;
5801;SDS011;2927;49.366;8.530;2023-02-26T11:13:55;1.60;;;0.40;;
5801;SDS011;2927;49.366;8.530;2023-02-26T11:16:21;0.43;;;0.43;;
5801;SDS011;2927;49.366;8.530;2023-02-26T11:18:47;1.13;;;0.60;;
5801;SDS011;2927;49.366;8.530;2023-02-26T11:21:18;0.50;;;0.50;;
5801;SDS011;2927;49.366;8.530;2023-02-26T11:23:48;1.07;;;0.60;;
5801;SDS011;2927;49.366;8.530;2023-02-26T11:26:17;0.53;;;0.30;;
5801;SDS011;2927;49.366;8.530;2023-02-26T11:28:46;0.30;;;0.30;;
5801;SDS011;2927;49.366;8.530;2023-02-26T11:31:15;0.37;;;0.37;;
5801;SDS011;2927;49.366;8.530;2023-02-26T11:33:48;0.43;;;0.30;;
5801;SDS011;2927;49.366;8.530;2023-02-26T11:36:17;0.30;;;0.30;;
5801;SDS011;2927;49.366;8.530;2023-02-26T11:38:45;0.30;;;0.30;;
5801;SDS011;2927;49.366;8.530;2023-02-26T11:41:16;0.30;;;0.30;;
5801;SDS011;2927;49.366;8.530;2023-02-26T11:43:44;0.30;;;0.30;;
5801;SDS011;2927;49.366;8.530;2023-02-26T11:46:23;0.50;;;0.40;;
5801;SDS011;2927;49.366;8.530;2023-02-26T11:48:49;0.60;;;0.30;;
5801;SDS011;2927;49.366;8.530;2023-02-26T11:51:26;2.70;;;0.30;;
5801;SDS011;2927;49.366;8.530;2023-02-26T11:53:59;1.50;;;0.50;;
5801;SDS011;2927;49.366;8.530;2023-02-26T11:56:30;1.43;;;0.50;;
5801;SDS011;2927;49.366;8.530;2023-02-26T11:59:19;3.40;;;0.50;;
5801;SDS011;2927;49.366;8.530;2023-02-26T12:01:46;0.30;;;0.30;;
5801;SDS011;2927;49.366;8.530;2023-02-26T12:04:13;0.40;;;0.40;;
5801;SDS011;2927;49.366;8.530;2023-02-26T12:06:52;0.43;;;0.30;;
5801;SDS011;2927;49.366;8.530;2023-02-26T12:09:19;0.30;;;0.30;;
5801;SDS011;2927;49.366;8.530;2023-02-26T12:11:56;0.90;;;0.43;;
5801;SDS011;2927;49.366;8.530;2023-02-26T12:22:50;0.60;;;0.30;;
5801;SDS011;2927;49.366;8.530;2023-02-26T12:25:55;0.40;;;0.40;;
5801;SDS011;2927;49.366;8.530;2023-02-26T12:31:40;1.13;;;0.50;;
5801;SDS011;2927;49.366;8.530;2023-02-26T12:34:44;3.27;;;0.40;;
5801;SDS011;2927;49.366;8.530;2023-02-26T12:38:06;1.13;;;0.40;;
5801;SDS011;2927;49.366;8.530;2023-02-26T12:43:54;0.33;;;0.33;;
5801;SDS011;2927;49.366;8.530;2023-02-26T12:46:15;0.30;;;0.20;;
5801;SDS011;2927;49.366;8.530;2023-02-26T13:17:08;1.77;;;0.50;;
5801;SDS011;2927;49.366;8.530;2023-02-26T13:22:34;0.47;;;0.37;;
5801;SDS011;2927;49.366;8.530;2023-02-26T13:25:11;0.53;;;0.50;;
5801;SDS011;2927;49.366;8.530;2023-02-26T13:27:47;0.53;;;0.47;;
5801;SDS011;2927;49.366;8.530;2023-02-26T13:32:40;0.53;;;0.40;;
5801;SDS011;2927;49.366;8.530;2023-02-26T13:35:16;0.80;;;0.40;;
5801;SDS011;2927;49.366;8.530;2023-02-26T13:38:18;0.63;;;0.40;;
5801;SDS011;2927;49.366;8.530;2023-02-26T13:41:04;0.73;;;0.53;;
5801;SDS011;2927;49.366;8.530;2023-02-26T13:43:46;8.87;;;0.47;;
5801;SDS011;2927;49.366;8.530;2023-02-26T13:46:31;0.60;;;0.40;;
5801;SDS011;2927;49.366;8.530;2023-02-26T13:51:43;0.40;;;0.30;;
5801;SDS011;2927;49.366;8.530;2023-02-26T14:06:50;0.30;;;0.30;;
5801;SDS011;2927;49.366;8.530;2023-02-26T14:19:35;0.70;;;0.30;;
5801;SDS011;2927;49.366;8.530;2023-02-26T14:32:48;0.47;;;0.30;;
5801;SDS011;2927;49.366;8.530;2023-02-26T14:35:42;0.60;;;0.30;;
5801;SDS011;2927;49.366;8.530;2023-02-26T14:38:26;0.30;;;0.30;;
5801;SDS011;2927;49.366;8.530;2023-02-26T14:43:48;0.50;;;0.50;;
5801;SDS011;2927;49.366;8.530;2023-02-26T14:46:18;0.80;;;0.50;;
5801;SDS011;2927;49.366;8.530;2023-02-26T14:48:44;0.37;;;0.30;;
5801;SDS011;2927;49.366;8.530;2023-02-26T14:56:58;0.77;;;0.30;;
5801;SDS011;2927;49.366;8.530;2023-02-26T14:59:31;0.30;;;0.30;;
5801;SDS011;2927;49.366;8.530;2023-02-26T15:02:33;0.50;;;0.50;;
5801;SDS011;2927;49.366;8.530;2023-02-26T15:20:03;1.43;;;0.57;;
5801;SDS011;2927;49.366;8.530;2023-02-26T15:25:41;0.83;;;0.40;;
5801;SDS011;2927;49.366;8.530;2023-02-26T15:30:59;0.40;;;0.33;;
5801;SDS011;2927;49.366;8.530;2023-02-26T15:33:26;0.30;;;0.20;;
5801;SDS011;2927;49.366;8.530;2023-02-26T15:35:54;1.60;;;0.50;;
5801;SDS011;2927;49.366;8.530;2023-02-26T15:38:21;0.40;;;0.33;;
5801;SDS011;2927;49.366;8.530;2023-02-26T15:40:48;0.30;;;0.30;;
5801;SDS011;2927;49.366;8.530;2023-02-26T15:43:22;1.07;;;0.33;;
5801;SDS011;2927;49.366;8.530;2023-02-26T15:45:50;0.60;;;0.50;;
5801;SDS011;2927;49.366;8.530;2023-02-26T15:50:56;2.23;;;0.70;;
5801;SDS011;2927;49.366;8.530;2023-02-26T15:53:35;0.67;;;0.67;;
5801;SDS011;2927;49.366;8.530;2023-02-26T15:56:02;0.77;;;0.43;;
5801;SDS011;2927;49.366;8.530;2023-02-26T15:58:35;1.57;;;0.50;;
5801;SDS011;2927;49.366;8.530;2023-02-26T16:01:12;2.83;;;0.93;;
5801;SDS011;2927;49.366;8.530;2023-02-26T16:03:39;1.40;;;0.47;;
5801;SDS011;2927;49.366;8.530;2023-02-26T16:06:05;2.00;;;0.40;;
5801;SDS011;2927;49.366;8.530;2023-02-26T16:08:35;1.67;;;0.40;;
5801;SDS011;2927;49.366;8.530;2023-02-26T16:11:00;0.90;;;0.40;;
5801;SDS011;2927;49.366;8.530;2023-02-26T16:13:27;0.83;;;0.60;;
5801;SDS011;2927;49.366;8.530;2023-02-26T16:16:06;1.00;;;0.47;;
5801;SDS011;2927;49.366;8.530;2023-02-26T16:18:35;3.00;;;0.50;;
5801;SDS011;2927;49.366;8.530;2023-02-26T16:21:04;3.40;;;0.77;;
5801;SDS011;2927;49.366;8.530;2023-02-26T16:23:37;0.90;;;0.50;;
5801;SDS011;2927;49.366;8.530;2023-02-26T16:26:04;0.40;;;0.30;;
5801;SDS011;2927;49.366;8.530;2023-02-26T16:28:32;0.30;;;0.20;;
5801;SDS011;2927;49.366;8.530;2023-02-26T16:31:02;2.33;;;0.80;;
5801;SDS011;2927;49.366;8.530;2023-02-26T16:33:31;1.03;;;0.67;;
5801;SDS011;2927;49.366;8.530;2023-02-26T16:36:10;1.10;;;0.50;;
5801;SDS011;2927;49.366;8.530;2023-02-26T16:38:50;0.90;;;0.53;;
5801;SDS011;2927;49.366;8.530;2023-02-26T16:41:27;1.43;;;0.80;;
5801;SDS011;2927;49.366;8.530;2023-02-26T16:43:56;0.97;;;0.57;;
5801;SDS011;2927;49.366;8.530;2023-02-26T16:46:30;0.33;;;0.33;;
5801;SDS011;2927;49.366;8.530;2023-02-26T16:49:15;0.70;;;0.70;;
5801;SDS011;2927;49.366;8.530;2023-02-26T16:51:48;0.53;;;0.53;;
5801;SDS011;2927;49.366;8.530;2023-02-26T16:54:19;1.60;;;0.60;;
5801;SDS011;2927;49.366;8.530;2023-02-26T16:56:54;4.00;;;0.70;;
5801;SDS011;2927;49.366;8.530;2023-02-26T16:59:23;0.50;;;0.50;;
5801;SDS011;2927;49.366;8.530;2023-02-26T17:04:27;0.43;;;0.43;;
5801;SDS011;2927;49.366;8.530;2023-02-26T17:06:55;1.80;;;1.27;;
5801;SDS011;2927;49.366;8.530;2023-02-26T17:12:11;0.50;;;0.50;;
5801;SDS011;2927;49.366;8.530;2023-02-26T17:14:40;0.50;;;0.43;;
5801;SDS011;2927;49.366;8.530;2023-02-26T17:17:10;1.17;;;0.80;;
5801;SDS011;2927;49.366;8.530;2023-02-26T17:19:36;0.50;;;0.50;;
5801;SDS011;2927;49.366;8.530;2023-02-26T17:22:02;0.83;;;0.83;;
5801;SDS011;2927;49.366;8.530;2023-02-26T17:24:33;1.80;;;1.17;;
5801;SDS011;2927;49.366;8.530;2023-02-26T17:27:01;1.00;;;0.40;;
5801;SDS011;2927;49.366;8.530;2023-02-26T17:29:31;2.67;;;0.83;;
5801;SDS011;2927;49.366;8.530;2023-02-26T17:32:04;2.40;;;0.60;;
5801;SDS011;2927;49.366;8.530;2023-02-26T17:34:32;0.60;;;0.60;;
5801;SDS011;2927;49.366;8.530;2023-02-26T17:36:58;1.37;;;0.30;;
5801;SDS011;2927;49.366;8.530;2023-02-26T17:39:29;0.73;;;0.43;;
5801;SDS011;2927;49.366;8.530;2023-02-26T17:41:55;0.70;;;0.50;;
5801;SDS011;2927;49.366;8.530;2023-02-26T17:44:21;0.50;;;0.40;;
5801;SDS011;2927;49.366;8.530;2023-02-26T17:46:46;4.10;;;0.40;;
5801;SDS011;2927;49.366;8.530;2023-02-26T17:49:12;0.50;;;0.40;;
5801;SDS011;2927;49.366;8.530;2023-02-26T17:51:38;1.23;;;0.60;;
5801;SDS011;2927;49.366;8.530;2023-02-26T17:54:03;0.60;;;0.30;;
5801;SDS011;2927;49.366;8.530;2023-02-26T17:56:29;0.70;;;0.50;;
5801;SDS011;2927;49.366;8.530;2023-02-26T17:58:57;1.27;;;0.50;;
5801;SDS011;2927;49.366;8.530;2023-02-26T18:01:23;3.60;;;0.50;;
5801;SDS011;2927;49.366;8.530;2023-02-26T18:03:51;1.80;;;0.47;;
5801;SDS011;2927;49.366;8.530;2023-02-26T18:06:18;0.90;;;0.80;;
5801;SDS011;2927;49.366;8.530;2023-02-26T18:08:45;1.13;;;0.40;;
5801;SDS011;2927;49.366;8.530;2023-02-26T18:11:12;1.70;;;0.40;;
5801;SDS011;2927;49.366;8.530;2023-02-26T18:13:39;0.77;;;0.77;;
5801;SDS011;2927;49.366;8.530;2023-02-26T18:16:04;2.00;;;0.47;;
5801;SDS011;2927;49.366;8.530;2023-02-26T18:18:34;1.40;;;0.60;;
5801;SDS011;2927;49.366;8.530;2023-02-26T18:21:00;1.37;;;0.50;;
5801;SDS011;2927;49.366;8.530;2023-02-26T18:23:26;1.30;;;0.60;;
5801;SDS011;2927;49.366;8.530;2023-02-26T18:25:52;0.67;;;0.50;;
5801;SDS011;2927;49.366;8.530;2023-02-26T18:28:20;1.17;;;0.50;;
5801;SDS011;2927;49.366;8.530;2023-02-26T18:30:47;0.73;;;0.50;;
5801;SDS011;2927;49.366;8.530;2023-02-26T18:33:13;0.97;;;0.60;;
5801;SDS011;2927;49.366;8.530;2023-02-26T18:35:41;0.63;;;0.40;;
5801;SDS011;2927;49.366;8.530;2023-02-26T18:38:11;2.10;;;0.87;;
5801;SDS011;2927;49.366;8.530;2023-02-26T18:40:38;1.27;;;0.60;;
5801;SDS011;2927;49.366;8.530;2023-02-26T18:43:03;0.90;;;0.50;;
5801;SDS011;2927;49.366;8.530;2023-02-26T18:45:29;0.90;;;0.60;;
5801;SDS011;2927;49.366;8.530;2023-02-26T18:47:55;2.10;;;0.80;;
5801;SDS011;2927;49.366;8.530;2023-02-26T18:50:21;1.27;;;0.63;;
5801;SDS011;2927;49.366;8.530;2023-02-26T18:52:47;1.00;;;0.43;;
5801;SDS011;2927;49.366;8.530;2023-02-26T18:55:13;0.87;;;0.40;;
5801;SDS011;2927;49.366;8.530;2023-02-26T18:57:39;1.67;;;0.50;;